CYIN

Bleibler Ranch

Bleibler Ranch, British Columbia, Canada
METAR CYIN 200000Z AUTO 32010KT 9SM FEW037 SCT100 11/06 A2996 RMK SLP169 DENSITY ALT 3900FT
Observed Flight Rules
Sep-20 @ 00:00 UTC (42 minutes ago) Visual Flight Rules
Wind Visibility Clouds
320° at 10 knots 9 miles
  • Few at 3,700' AGL
  • Scattered at 10,000' AGL
Temperatures Readings
Current 11°C / 52°F
Dewpoint 6°C / 43°F
Humidity 72%
Altimeter 29.96" Hg
Pressure 1016.9 hPa
Elevation 1128
METAR CYIN 200000Z AUTO 32010KT 9SM FEW037 SCT100 11/06 A2996 RMK SLP169 DENSITY ALT 3900FT
Observed Flight Rules
Sep-20 @ 00:00 UTC
(42 minutes ago)
VFR
Wind Visibility
320° at 10 knots 9 miles
Clouds
  • Few at 3,700' AGL
  • Scattered at 10,000' AGL
Temperature Dewpoint
11°C / 52°F 6°C / 43°F
Humidity Altimeter Pressure
72% 29.96" Hg 1016.9 hPa